Time;durP1;ratioP1;P1;durP2;ratioP2;P2;SDS_P1;SDS_P2;PMS_P1;PMS_P2;Temp;Humidity;BMP_temperature;BMP_pressure;BME280_temperature;BME280_humidity;BME280_pressure;Samples;Min_cycle;Max_cycle;Signal;HPM_P1;HPM_P2
2022/05/31 00:02:00;;;;;;;30.93;2.40;;;;;;;23.36;52.52;99361.72;7309426;19;158108;-41
2022/05/31 00:04:26;;;;;;;54.35;4.10;;;;;;;23.40;52.46;99367.47;7309487;19;129210;-42
2022/05/31 00:06:52;;;;;;;25.20;1.97;;;;;;;23.39;52.44;99361.41;7310192;19;129158;-42
2022/05/31 00:09:17;;;;;;;56.58;3.92;;;;;;;23.39;52.13;99361.41;7307966;19;154605;-42
2022/05/31 00:11:43;;;;;;;33.33;2.53;;;;;;;23.37;53.11;99363.34;7310975;19;129179;-40
2022/05/31 00:14:10;;;;;;;20.02;1.60;;;;;;;23.36;53.76;99364.34;7312242;19;129747;-43
2022/05/31 00:16:36;;;;;;;29.52;2.22;;;;;;;23.27;53.20;99351.34;7310903;19;129398;-43
2022/05/31 00:19:02;;;;;;;13.52;1.35;;;;;;;23.36;54.68;99359.09;7311827;19;129307;-42
2022/05/31 00:21:43;;;;;;;42.67;3.37;;;;;;;23.38;54.20;99365.03;7310424;19;130111;-42
2022/05/31 00:24:11;;;;;;;34.22;2.63;;;;;;;23.35;53.12;99359.25;7310925;19;130091;-42
2022/05/31 00:26:38;;;;;;;36.85;2.92;;;;;;;23.26;53.64;99337.38;7310055;19;129331;-43
2022/05/31 00:29:04;;;;;;;39.13;3.08;;;;;;;23.32;52.94;99355.13;7309952;19;129235;-41
2022/05/31 00:31:30;;;;;;;30.67;2.23;;;;;;;23.36;52.80;99356.47;7310147;19;131177;-41
2022/05/31 00:33:55;;;;;;;29.80;2.38;;;;;;;23.36;52.86;99351.22;7310110;19;130421;-41
2022/05/31 00:36:21;;;;;;;23.60;1.77;;;;;;;23.31;52.54;99348.25;7310614;19;129159;-41
2022/05/31 00:38:46;;;;;;;23.45;1.70;;;;;;;23.30;53.01;99351.88;7309677;19;129512;-42
2022/05/31 00:41:23;;;;;;;24.33;2.05;;;;;;;23.12;51.08;99358.94;7309280;19;129991;-41
2022/05/31 00:43:57;;;;;;;19.67;1.55;;;;;;;23.01;53.68;99352.16;7310616;19;129526;-42
2022/05/31 00:46:25;;;;;;;30.88;2.30;;;;;;;23.13;52.63;99360.59;7310094;19;129029;-41
2022/05/31 00:48:58;;;;;;;21.33;1.60;;;;;;;23.22;54.36;99364.91;7308947;19;129235;-41
2022/05/31 00:51:30;;;;;;;45.92;3.58;;;;;;;23.27;53.19;99357.41;7308400;19;130403;-42
2022/05/31 00:54:01;;;;;;;28.55;2.22;;;;;;;23.33;53.71;99362.03;7310816;19;129710;-43
2022/05/31 00:56:30;;;;;;;29.20;2.33;;;;;;;23.31;51.78;99358.75;7309414;19;128917;-41
2022/05/31 00:59:04;;;;;;;46.78;3.30;;;;;;;23.33;52.16;99346.31;7308309;19;129889;-42
2022/05/31 01:01:33;;;;;;;38.92;2.92;;;;;;;23.34;52.09;99353.19;7308854;19;129694;-42
2022/05/31 01:03:59;;;;;;;37.88;2.95;;;;;;;23.33;52.29;99354.16;7309143;19;131247;-39
2022/05/31 01:06:24;;;;;;;35.13;2.77;;;;;;;23.34;53.71;99355.00;7308601;19;129731;-39
2022/05/31 01:08:54;;;;;;;32.00;2.35;;;;;;;23.34;53.25;99357.63;7309193;19;129928;-42
2022/05/31 01:11:22;;;;;;;24.95;1.90;;;;;;;23.33;52.59;99355.97;7309321;19;129560;-43
2022/05/31 01:13:47;;;;;;;27.23;2.28;;;;;;;23.34;53.17;99350.56;7309514;19;129934;-42
2022/05/31 01:16:14;;;;;;;23.60;1.90;;;;;;;23.31;52.87;99343.00;7308626;19;130071;-41
2022/05/31 01:18:39;;;;;;;;;;;;;;;23.39;54.73;99350.91;7309141;19;129053;-42
2022/05/31 01:21:05;;;;;;;26.10;2.07;;;;;;;23.33;52.47;99348.91;7309800;19;130558;-43
2022/05/31 01:23:37;;;;;;;31.10;2.40;;;;;;;23.29;53.97;99347.56;7309382;19;130398;-43
2022/05/31 01:26:18;;;;;;;33.60;2.78;;;;;;;23.27;53.03;99341.66;7308402;19;128992;-42
2022/05/31 01:28:43;;;;;;;52.22;3.80;;;;;;;23.30;52.76;99345.78;7305000;19;129062;-41
2022/05/31 01:31:17;;;;;;;25.23;1.95;;;;;;;23.30;54.46;99349.25;7306155;19;157658;-42
2022/05/31 01:34:18;;;;;;;36.85;2.85;;;;;;;23.35;54.53;99352.22;7309132;19;130783;-42
2022/05/31 01:36:50;;;;;;;42.10;3.25;;;;;;;23.25;54.58;99339.16;7307303;19;130856;-42
2022/05/31 01:39:23;;;;;;;37.72;2.78;;;;;;;23.30;53.83;99346.63;7307816;19;129528;-41
2022/05/31 01:41:55;;;;;;;32.97;2.50;;;;;;;23.32;54.34;99349.09;7308567;19;130391;-42
2022/05/31 01:44:24;;;;;;;33.80;2.78;;;;;;;23.29;53.87;99352.81;7309302;19;129312;-41
2022/05/31 01:46:53;;;;;;;34.53;2.65;;;;;;;23.30;52.73;99356.28;7306501;19;130215;-42
2022/05/31 01:49:19;;;;;;;30.60;2.28;;;;;;;23.31;53.41;99353.50;7308974;19;129673;-42
2022/05/31 01:51:45;;;;;;;31.87;2.60;;;;;;;23.30;52.77;99346.63;7313793;19;129593;-41
2022/05/31 01:54:14;;;;;;;19.75;1.60;;;;;;;23.30;54.53;99346.63;7315715;19;130331;-41
2022/05/31 01:56:42;;;;;;;40.10;3.10;;;;;;;23.31;53.42;99355.28;7314855;19;129120;-42
2022/05/31 01:59:08;;;;;;;52.88;3.85;;;;;;;23.20;53.27;99345.88;7313991;19;129185;-42
2022/05/31 02:01:37;;;;;;;40.57;3.10;;;;;;;23.31;53.47;99363.16;7314568;19;130201;-42
2022/05/31 02:04:03;;;;;;;34.22;2.78;;;;;;;23.29;52.54;99360.69;7312644;19;129833;-42
2022/05/31 02:06:33;;;;;;;48.70;3.95;;;;;;;23.30;54.67;99359.72;7313591;19;128865;-40
2022/05/31 02:09:00;;;;;;;39.45;2.95;;;;;;;23.28;52.53;99364.31;7313165;19;131020;-41
2022/05/31 02:11:25;;;;;;;34.22;2.72;;;;;;;22.88;49.93;99371.88;7314512;19;129772;-42
2022/05/31 02:13:51;;;;;;;24.52;1.83;;;;;;;23.00;53.52;99373.28;7314230;19;130228;-41
2022/05/31 02:16:17;;;;;;;23.00;1.83;;;;;;;23.03;53.61;99355.44;7313578;19;129272;-42
2022/05/31 02:21:35;;;;;;;37.75;2.83;;;;;;;23.20;52.57;99370.28;7315115;19;129387;-41
2022/05/31 02:24:00;;;;;;;31.77;2.50;;;;;;;23.24;52.82;99365.56;7313778;19;130761;-43
2022/05/31 02:26:26;;;;;;;30.50;2.20;;;;;;;23.27;52.64;99364.47;7314119;19;129038;-42
2022/05/31 02:28:52;;;;;;;41.23;3.03;;;;;;;23.25;53.12;99359.34;7313270;19;129028;-41
2022/05/31 02:31:17;;;;;;;27.50;2.17;;;;;;;23.27;52.70;99362.66;7314629;19;158257;-39
2022/05/31 02:33:42;;;;;;;28.27;2.13;;;;;;;23.30;52.21;99362.34;7313092;19;158510;-42
2022/05/31 02:36:07;;;;;;;34.17;2.67;;;;;;;23.26;52.42;99355.72;7313909;19;153922;-41
2022/05/31 02:38:33;;;;;;;28.95;2.15;;;;;;;23.26;54.60;99350.50;7313260;19;154954;-42
2022/05/31 02:40:58;;;;;;;28.77;2.22;;;;;;;23.29;52.82;99347.56;7311600;19;130091;-42
2022/05/31 02:43:24;;;;;;;34.70;2.78;;;;;;;23.26;53.11;99353.09;7313808;19;159078;-41
2022/05/31 02:45:49;;;;;;;46.53;3.45;;;;;;;23.17;53.36;99338.31;7312767;19;131007;-40
2022/05/31 02:48:15;;;;;;;24.98;1.90;;;;;;;23.28;52.76;99356.44;7309954;19;154785;-43
2022/05/31 02:50:40;;;;;;;22.25;1.80;;;;;;;23.29;52.40;99350.19;7310205;19;159013;-41
2022/05/31 02:53:05;;;;;;;32.27;2.50;;;;;;;23.24;53.40;99347.19;7312474;19;154041;-43
2022/05/31 02:55:30;;;;;;;55.72;3.92;;;;;;;23.24;53.13;99353.28;7310265;19;140118;-43
2022/05/31 02:57:56;;;;;;;41.53;3.33;;;;;;;23.25;52.95;99364.59;7310750;19;154440;-42
2022/05/31 03:00:22;;;;;;;69.97;4.88;;;;;;;23.27;53.12;99352.16;7307577;19;157745;-40
2022/05/31 03:02:47;;;;;;;20.63;1.63;;;;;;;23.25;53.45;99356.72;7313669;19;131419;-42
2022/05/31 03:05:12;;;;;;;43.55;3.50;;;;;;;23.24;53.33;99355.06;7312211;19;129626;-41
2022/05/31 03:07:37;;;;;;;29.43;2.40;;;;;;;23.24;53.84;99352.44;7310836;19;143804;-41
2022/05/31 03:10:03;;;;;;;27.58;2.17;;;;;;;23.26;53.00;99353.09;7308717;19;158237;-41
2022/05/31 03:12:29;;;;;;;35.57;2.67;;;;;;;23.26;52.71;99355.72;7313685;19;129431;-42
2022/05/31 03:15:01;;;;;;;12.05;1.15;;;;;;;23.29;54.38;99354.66;7313577;19;129431;-41
2022/05/31 03:17:33;;;;;;;33.10;2.50;;;;;;;23.22;54.44;99354.41;7312740;19;129876;-42
2022/05/31 03:20:22;;;;;;;13.18;1.25;;;;;;;23.25;54.40;99359.34;7311581;19;130181;-41
2022/05/31 03:22:59;;;;;;;26.70;1.95;;;;;;;23.24;54.68;99357.69;7312824;19;130720;-41
2022/05/31 03:25:27;;;;;;;25.77;2.33;;;;;;;23.22;54.02;99354.41;7313319;19;129044;-41
2022/05/31 03:27:58;;;;;;;47.72;3.83;;;;;;;23.21;53.33;99363.25;7310126;19;129207;-42
2022/05/31 03:30:23;;;;;;;37.72;2.88;;;;;;;23.23;53.79;99348.19;7309836;19;130436;-41
2022/05/31 03:32:51;;;;;;;24.52;1.90;;;;;;;23.26;53.51;99350.50;7313000;19;129664;-42
2022/05/31 03:35:17;;;;;;;24.88;1.95;;;;;;;23.13;54.26;99334.34;7311735;19;128914;-41
2022/05/31 03:37:43;;;;;;;33.47;2.78;;;;;;;23.22;53.68;99355.22;7311669;19;128864;-42
2022/05/31 03:40:09;;;;;;;21.95;2.00;;;;;;;22.81;50.30;99355.13;7309991;19;130163;-43
2022/05/31 03:42:34;;;;;;;31.20;2.47;;;;;;;22.95;52.85;99349.31;7311384;19;130422;-42
2022/05/31 03:44:59;;;;;;;39.63;3.07;;;;;;;23.07;54.58;99353.34;7312064;19;128966;-42
2022/05/31 03:47:24;;;;;;;29.52;2.28;;;;;;;23.13;53.88;99350.91;7309480;19;130035;-39
2022/05/31 03:49:50;;;;;;;42.88;3.35;;;;;;;23.14;52.83;99347.31;7307370;19;158958;-40
2022/05/31 03:52:15;;;;;;;27.80;2.15;;;;;;;23.20;53.62;99348.50;7310651;19;160095;-42
2022/05/31 03:54:40;;;;;;;57.88;4.53;;;;;;;23.21;52.82;99363.25;7310565;19;129814;-42
2022/05/31 03:57:11;;;;;;;37.40;2.93;;;;;;;23.21;52.80;99368.50;7309961;19;139281;-43
2022/05/31 03:59:37;;;;;;;18.83;1.60;;;;;;;23.22;53.34;99364.91;7310540;19;129969;-41
2022/05/31 04:02:04;;;;;;;50.00;3.90;;;;;;;23.21;53.86;99368.50;7308763;19;130389;-41
2022/05/31 04:04:30;;;;;;;30.75;2.35;;;;;;;23.25;53.06;99369.84;7303240;19;131133;-42
2022/05/31 04:06:55;;;;;;;59.67;4.65;;;;;;;23.24;52.83;99362.94;7298628;19;130721;-40
2022/05/31 04:09:20;;;;;;;43.23;3.33;;;;;;;23.22;52.25;99367.53;7298246;19;158236;-39
2022/05/31 04:11:45;;;;;;;13.30;1.35;;;;;;;23.25;52.50;99372.47;7306843;19;158438;-41
2022/05/31 04:14:11;;;;;;;25.88;1.98;;;;;;;23.23;53.70;99371.78;7309034;19;155581;-41
2022/05/31 04:16:36;;;;;;;45.88;3.17;;;;;;;23.22;52.97;99383.28;7306179;19;154304;-42
2022/05/31 04:19:02;;;;;;;29.45;2.33;;;;;;;23.23;53.57;99371.78;7302334;19;147357;-42
2022/05/31 04:21:27;;;;;;;44.37;3.33;;;;;;;23.24;52.79;99373.41;7306429;19;130381;-41
2022/05/31 04:23:59;;;;;;;36.05;2.83;;;;;;;23.23;53.35;99382.28;7308282;19;154554;-42
2022/05/31 04:26:35;;;;;;;51.33;3.85;;;;;;;23.23;54.61;99374.41;7308828;19;129244;-41
2022/05/31 04:29:00;;;;;;;39.53;2.95;;;;;;;23.22;53.28;99376.19;7304814;19;131833;-43
2022/05/31 04:31:26;;;;;;;43.25;3.28;;;;;;;23.22;52.99;99375.41;7307794;19;157937;-41
2022/05/31 04:33:51;;;;;;;39.70;3.00;;;;;;;23.20;53.43;99377.34;7307208;19;131551;-41
2022/05/31 04:36:18;;;;;;;29.73;2.43;;;;;;;23.12;53.60;99365.00;7310461;19;129118;-41
2022/05/31 04:38:44;;;;;;;25.08;1.95;;;;;;;23.20;52.86;99379.97;7308183;19;132909;-40
2022/05/31 04:41:25;;;;;;;32.58;2.50;;;;;;;23.22;55.43;99380.66;7308221;19;130445;-42
2022/05/31 04:43:52;;;;;;;25.13;1.85;;;;;;;23.19;53.30;99386.19;7309084;19;130967;-41
2022/05/31 04:46:20;;;;;;;27.73;2.40;;;;;;;23.19;53.82;99392.25;7306239;19;129006;-42
2022/05/31 04:48:46;;;;;;;38.58;2.95;;;;;;;23.24;53.37;99383.91;7306452;19;130675;-41
2022/05/31 04:51:12;;;;;;;24.50;1.97;;;;;;;23.25;54.24;99380.34;7307746;19;130368;-39
2022/05/31 04:53:39;;;;;;;34.88;2.65;;;;;;;23.23;53.52;99377.03;7308218;19;128995;-40
2022/05/31 04:56:07;;;;;;;60.28;4.15;;;;;;;23.25;53.00;99377.72;7306420;19;128874;-41
2022/05/31 04:58:32;;;;;;;30.02;2.40;;;;;;;23.28;53.20;99374.81;7309734;19;130297;-42
2022/05/31 05:01:01;;;;;;;17.15;1.58;;;;;;;23.25;52.44;99369.84;7306425;19;130793;-41
2022/05/31 05:03:29;;;;;;;35.83;2.88;;;;;;;23.26;52.50;99371.47;7306340;19;129734;-41
2022/05/31 05:06:02;;;;;;;42.90;3.45;;;;;;;23.26;53.87;99374.09;7307545;19;130969;-41
2022/05/31 05:08:28;;;;;;;42.17;3.35;;;;;;;22.72;49.09;99377.00;7303020;19;130304;-40
2022/05/31 05:10:53;;;;;;;40.57;3.10;;;;;;;22.92;53.74;99373.25;7304342;19;129229;-40
2022/05/31 05:13:19;;;;;;;34.80;2.78;;;;;;;23.05;52.26;99379.72;7307780;19;130005;-41
2022/05/31 05:15:44;;;;;;;88.45;6.50;;;;;;;23.14;51.72;99378.78;7304873;19;154280;-42
2022/05/31 05:18:09;;;;;;;55.38;4.18;;;;;;;23.10;51.91;99371.38;7305698;19;142925;-41
2022/05/31 05:20:37;;;;;;;45.33;3.47;;;;;;;23.13;53.36;99377.16;7304241;19;131124;-41
2022/05/31 05:23:04;;;;;;;33.17;2.78;;;;;;;23.18;52.30;99379.31;7309593;19;128931;-40
2022/05/31 05:25:29;;;;;;;51.72;4.10;;;;;;;23.08;52.77;99360.22;7313135;19;130041;-40
2022/05/31 05:27:54;;;;;;;38.33;3.05;;;;;;;23.16;51.66;99362.88;7313107;19;158639;-39
2022/05/31 05:33:04;;;;;;;52.72;4.47;;;;;;;23.20;51.87;99365.03;7313570;19;129347;-41
2022/05/31 05:35:29;;;;;;;46.20;3.95;;;;;;;23.17;52.88;99373.22;7317390;19;129378;-40
2022/05/31 05:37:54;;;;;;;24.50;2.17;;;;;;;23.15;52.96;99359.44;7313323;19;158205;-40
2022/05/31 05:40:19;;;;;;;20.80;2.05;;;;;;;23.14;54.44;99356.97;7313725;19;157568;-41
2022/05/31 05:42:45;;;;;;;19.42;1.65;;;;;;;23.12;52.38;99354.50;7315080;19;154912;-40
2022/05/31 05:45:10;;;;;;;45.63;3.67;;;;;;;23.19;51.99;99357.31;7315039;19;155044;-40
2022/05/31 05:47:36;;;;;;;41.80;4.00;;;;;;;23.15;53.58;99359.44;7314437;19;130179;-39
2022/05/31 05:50:02;;;;;;;41.67;3.50;;;;;;;23.18;53.44;99358.31;7314584;19;158437;-42
2022/05/31 05:52:27;;;;;;;65.17;5.33;;;;;;;23.14;53.31;99367.47;7316381;19;131353;-40
2022/05/31 05:54:53;;;;;;;26.50;2.30;;;;;;;23.14;52.84;99359.59;7314695;19;129502;-39
2022/05/31 05:57:18;;;;;;;22.70;1.92;;;;;;;23.02;52.75;99348.53;7313975;19;158354;-39
2022/05/31 05:59:43;;;;;;;17.70;2.03;;;;;;;23.10;54.90;99366.13;7313429;19;129151;-40
2022/05/31 06:02:18;;;;;;;113.03;8.77;;;;;;;23.10;54.65;99366.13;7296082;19;154434;-43
2022/05/31 06:04:50;;;;;;;31.38;2.53;;;;;;;23.12;54.33;99366.81;7302649;19;129910;-40
2022/05/31 06:07:33;;;;;;;44.40;3.70;;;;;;;23.11;54.39;99373.03;7311577;19;129828;-42
2022/05/31 06:10:18;;;;;;;36.50;2.88;;;;;;;23.12;54.65;99358.94;7312879;19;129863;-42
2022/05/31 06:12:49;;;;;;;10.13;1.27;;;;;;;23.15;52.84;99353.38;7314274;19;129531;-42
2022/05/31 06:15:21;;;;;;;51.35;4.35;;;;;;;23.12;54.89;99364.19;7313498;19;129285;-40
2022/05/31 06:17:52;;;;;;;23.35;2.20;;;;;;;23.09;54.11;99359.22;7312511;19;130151;-41
2022/05/31 06:20:18;;;;;;;26.02;2.42;;;;;;;23.12;52.93;99364.19;7312995;19;130510;-43
2022/05/31 06:22:43;;;;;;;33.17;2.88;;;;;;;23.13;53.03;99360.59;7314592;19;129203;-41
2022/05/31 06:25:13;;;;;;;28.95;2.33;;;;;;;23.11;52.97;99357.28;7312127;19;129405;-42
2022/05/31 06:27:38;;;;;;;37.92;3.35;;;;;;;23.11;54.37;99359.91;7311315;19;129151;-41
2022/05/31 06:30:04;;;;;;;34.85;2.85;;;;;;;23.10;54.38;99360.91;7312327;19;130461;-42
2022/05/31 06:32:30;;;;;;;37.00;3.15;;;;;;;23.08;54.84;99357.59;7313750;19;128792;-43
2022/05/31 06:34:55;;;;;;;25.48;2.28;;;;;;;23.09;54.55;99364.47;7315138;19;130153;-41
2022/05/31 06:37:21;;;;;;;30.23;2.60;;;;;;;23.10;53.53;99366.97;7314365;19;130130;-40
2022/05/31 06:39:46;;;;;;;22.80;2.00;;;;;;;22.56;50.01;99355.94;7313017;19;129621;-43
2022/05/31 06:42:12;;;;;;;27.00;2.22;;;;;;;22.78;52.53;99348.41;7313789;19;143912;-41
2022/05/31 06:44:40;;;;;;;34.47;2.83;;;;;;;22.96;53.64;99358.81;7314158;19;130627;-42
2022/05/31 06:47:05;;;;;;;28.95;2.75;;;;;;;23.01;52.61;99354.78;7313526;19;130159;-43
2022/05/31 06:49:32;;;;;;;39.72;3.53;;;;;;;23.03;54.07;99354.63;7312867;19;129691;-41
2022/05/31 06:57:36;;;;;;;49.88;4.25;;;;;;;23.07;52.06;99350.72;7313236;19;129404;-42
2022/05/31 07:00:04;;;;;;;58.28;4.85;;;;;;;23.04;53.80;99346.59;7312054;19;131730;-42
2022/05/31 07:02:29;;;;;;;40.20;3.60;;;;;;;23.05;52.38;99348.25;7312895;19;130044;-43
2022/05/31 07:04:55;;;;;;;38.28;3.15;;;;;;;23.07;53.69;99355.97;7310259;19;128876;-41
2022/05/31 07:07:20;;;;;;;76.65;6.18;;;;;;;23.06;52.87;99346.44;7311204;19;129482;-41
2022/05/31 07:09:46;;;;;;;24.60;2.25;;;;;;;23.06;53.84;99349.06;7306528;19;159900;-42
2022/05/31 07:12:11;;;;;;;26.83;2.45;;;;;;;23.04;54.46;99348.38;7310350;19;154636;-44
2022/05/31 07:14:37;;;;;;;45.58;3.70;;;;;;;23.03;53.94;99349.38;7313296;19;128852;-41
2022/05/31 07:17:04;;;;;;;33.10;2.90;;;;;;;23.03;53.69;99342.34;7308261;19;130291;-41
2022/05/31 07:19:29;;;;;;;30.13;2.43;;;;;;;23.07;52.99;99345.47;7311343;19;129219;-40
2022/05/31 07:21:59;;;;;;;24.25;2.22;;;;;;;23.05;54.02;99336.94;7311890;19;129299;-42
2022/05/31 07:24:25;;;;;;;28.23;2.42;;;;;;;23.08;54.35;99345.31;7312004;19;130067;-43
2022/05/31 07:26:51;;;;;;;76.95;6.03;;;;;;;23.05;54.06;99344.81;7305716;19;131519;-39
2022/05/31 07:29:16;;;;;;;28.75;2.53;;;;;;;23.00;54.42;99329.53;7303928;19;158733;-42
2022/05/31 07:31:44;;;;;;;38.08;3.22;;;;;;;23.03;53.48;99344.97;7311368;19;155395;-41
2022/05/31 07:34:10;;;;;;;26.02;2.20;;;;;;;23.03;54.14;99331.03;7313100;19;129294;-41
2022/05/31 07:36:37;;;;;;;38.37;3.30;;;;;;;23.02;54.69;99339.88;7312436;19;130129;-41
2022/05/31 07:39:02;;;;;;;25.17;2.17;;;;;;;22.94;54.09;99313.63;7311066;19;131397;-42
2022/05/31 07:41:28;;;;;;;35.43;3.03;;;;;;;23.04;54.81;99332.66;7309296;19;129637;-42
2022/05/31 07:43:54;;;;;;;33.40;2.95;;;;;;;23.04;53.82;99330.84;7311026;19;129394;-41
2022/05/31 07:46:19;;;;;;;43.70;3.42;;;;;;;22.97;53.82;99314.09;7308770;19;158061;-42
2022/05/31 07:48:44;;;;;;;27.80;2.30;;;;;;;23.05;53.35;99326.44;7309866;19;130106;-42
2022/05/31 07:51:10;;;;;;;29.17;2.53;;;;;;;23.05;53.72;99329.06;7310355;19;154405;-40
2022/05/31 07:53:35;;;;;;;19.08;1.73;;;;;;;23.05;53.44;99316.78;7310566;19;154128;-41
2022/05/31 07:56:06;;;;;;;34.10;2.65;;;;;;;23.02;53.62;99324.16;7310083;19;149602;-41
2022/05/31 07:58:36;;;;;;;48.17;3.85;;;;;;;23.03;53.74;99312.66;7310777;19;130146;-43
2022/05/31 08:01:07;;;;;;;28.27;2.50;;;;;;;23.01;54.21;99312.00;7309346;19;129179;-42
2022/05/31 08:03:34;;;;;;;35.30;3.10;;;;;;;23.03;54.43;99308.25;7310473;19;129106;-42
2022/05/31 08:06:06;;;;;;;25.30;2.22;;;;;;;22.55;49.98;99310.56;7310964;19;130212;-42
2022/05/31 08:08:31;;;;;;;26.17;2.25;;;;;;;22.76;52.20;99312.81;7311110;19;130402;-43
2022/05/31 08:10:57;;;;;;;31.65;2.58;;;;;;;22.90;52.51;99312.25;7308858;19;128896;-40
2022/05/31 08:13:22;;;;;;;31.88;2.63;;;;;;;22.97;53.62;99308.06;7310722;19;130930;-41
2022/05/31 08:15:47;;;;;;;75.53;6.03;;;;;;;23.00;52.28;99307.75;7309738;19;158317;-42
2022/05/31 08:18:13;;;;;;;39.63;2.97;;;;;;;22.98;53.84;99309.69;7309474;19;130330;-42
2022/05/31 08:20:39;;;;;;;15.90;1.63;;;;;;;22.92;53.73;99294.59;7308129;19;154761;-42
2022/05/31 08:23:04;;;;;;;57.03;4.78;;;;;;;23.01;52.07;99306.75;7308865;19;129128;-41
2022/05/31 08:25:33;;;;;;;48.63;3.75;;;;;;;22.92;53.75;99294.59;7309564;19;130719;-42
2022/05/31 08:27:59;;;;;;;21.77;2.10;;;;;;;23.00;52.46;99292.00;7309283;19;130305;-43
2022/05/31 08:30:24;;;;;;;23.67;2.13;;;;;;;23.03;54.25;99286.44;7309294;19;129523;-42
2022/05/31 08:32:49;;;;;;;25.05;2.25;;;;;;;22.91;52.65;99277.19;7303315;19;154343;-41
2022/05/31 08:35:15;;;;;;;49.95;3.50;;;;;;;23.01;53.13;99288.41;7310359;19;130147;-42
2022/05/31 08:37:40;;;;;;;24.37;2.17;;;;;;;23.02;52.79;99285.63;7308644;19;158442;-42
2022/05/31 08:40:06;;;;;;;64.90;5.15;;;;;;;23.02;54.47;99290.84;7308564;19;130049;-42
2022/05/31 08:42:49;;;;;;;24.10;2.10;;;;;;;23.01;54.70;99288.41;7304714;19;129366;-41
2022/05/31 08:45:53;;;;;;;23.60;1.98;;;;;;;23.02;55.60;99276.94;7311486;19;130366;-42
2022/05/31 08:48:35;;;;;;;32.83;2.70;;;;;;;23.03;55.66;99281.19;7306292;19;129732;-42
2022/05/31 08:56:59;;;;;;;62.47;4.90;;;;;;;23.00;53.86;99260.53;7304221;19;129686;-42
2022/05/31 08:59:39;;;;;;;35.20;2.80;;;;;;;23.00;53.81;99260.53;7309892;19;129753;-41
2022/05/31 09:02:13;;;;;;;36.92;3.05;;;;;;;22.99;53.53;99256.28;7316436;19;129106;-41
2022/05/31 09:04:43;;;;;;;31.33;2.63;;;;;;;23.00;54.37;99260.53;7315560;19;129825;-40
2022/05/31 09:07:17;;;;;;;80.25;6.47;;;;;;;23.03;54.79;99260.22;7306527;19;131355;-39
2022/05/31 09:09:52;;;;;;;22.90;2.15;;;;;;;23.01;54.04;99257.75;7306875;19;130441;-43
2022/05/31 09:12:41;;;;;;;36.65;3.03;;;;;;;23.02;54.63;99253.34;7316820;19;129308;-43
2022/05/31 09:15:19;;;;;;;29.77;2.40;;;;;;;23.02;53.87;99250.72;7314142;19;130211;-43
2022/05/31 09:18:03;;;;;;;28.42;2.35;;;;;;;23.01;54.60;99249.91;7314567;19;130621;-41
2022/05/31 09:20:36;;;;;;;37.13;3.05;;;;;;;22.98;53.58;99257.25;7314454;19;130944;-40
2022/05/31 09:23:01;;;;;;;33.55;2.53;;;;;;;22.98;52.47;99252.84;7315683;19;128988;-41
2022/05/31 09:25:32;;;;;;;37.80;3.15;;;;;;;23.01;52.15;99249.91;7315950;19;129349;-42
2022/05/31 09:28:05;;;;;;;44.58;3.55;;;;;;;22.93;54.49;99233.31;7314889;19;129687;-41
2022/05/31 09:30:40;;;;;;;40.65;3.15;;;;;;;22.99;54.31;99245.81;7306055;19;130366;-43
2022/05/31 09:33:29;;;;;;;30.85;2.35;;;;;;;22.80;51.58;99238.16;7309613;19;130826;-41
2022/05/31 09:36:06;;;;;;;74.20;5.13;;;;;;;22.59;52.13;99235.09;7311527;19;129650;-41
2022/05/31 09:38:31;;;;;;;;;;;;;;;22.84;55.03;99234.25;7312017;19;130106;-41
2022/05/31 09:41:30;;;;;;;28.23;2.20;;;;;;;22.83;54.88;99219.50;7315012;19;129309;-42
2022/05/31 09:44:15;;;;;;;26.88;2.08;;;;;;;22.95;52.71;99216.44;7310945;19;129451;-42
2022/05/31 09:46:56;;;;;;;24.67;1.98;;;;;;;22.97;53.66;99222.34;7315905;19;129761;-42
2022/05/31 09:49:39;;;;;;;35.42;2.70;;;;;;;23.02;53.94;99214.81;7313038;19;129093;-40
2022/05/31 09:52:31;;;;;;;27.10;2.25;;;;;;;23.00;55.06;99221.22;7316539;19;132197;-42
2022/05/31 09:58:11;;;;;;;8.88;1.10;;;;;;;22.99;54.38;99214.34;7315926;19;128957;-42
2022/05/31 10:00:56;;;;;;;18.30;1.70;;;;;;;22.97;53.18;99216.28;7313837;19;131446;-43
2022/05/31 10:03:36;;;;;;;60.45;4.97;;;;;;;22.95;55.24;99210.38;7312240;19;130629;-41
2022/05/31 10:06:12;;;;;;;49.05;4.10;;;;;;;22.97;54.91;99208.44;7314955;19;129142;-41
2022/05/31 10:08:37;;;;;;;25.83;2.13;;;;;;;22.95;52.75;99211.22;7313613;19;129296;-42
2022/05/31 10:11:11;;;;;;;56.90;4.60;;;;;;;23.00;54.38;99214.19;7309895;19;159158;-42
2022/05/31 10:13:43;;;;;;;27.05;2.17;;;;;;;22.98;53.66;99210.06;7314687;19;132165;-43
2022/05/31 10:16:19;;;;;;;27.48;2.25;;;;;;;22.95;53.12;99202.50;7315228;19;129174;-43
2022/05/31 10:18:51;;;;;;;23.65;1.88;;;;;;;22.95;54.33;99199.91;7313445;19;128824;-41
2022/05/31 10:21:40;;;;;;;25.45;2.20;;;;;;;22.92;54.26;99179.25;7315731;19;131947;-42
2022/05/31 10:24:15;;;;;;;24.50;2.17;;;;;;;22.92;53.43;99184.47;7310676;19;130802;-41
2022/05/31 10:26:42;;;;;;;39.08;3.28;;;;;;;22.93;53.85;99196.59;7313428;19;129793;-42
2022/05/31 10:29:07;;;;;;;;;;;;;;;22.99;55.08;99198.63;7314259;19;128928;-44
2022/05/31 10:31:37;;;;;;;57.37;4.63;;;;;;;22.95;53.93;99194.66;7313939;19;130256;-42
2022/05/31 10:34:06;;;;;;;23.52;1.92;;;;;;;22.94;54.17;99193.81;7315347;19;132933;-41
2022/05/31 10:36:47;;;;;;;60.72;4.63;;;;;;;22.94;53.03;99183.34;7312270;19;130279;-41
2022/05/31 10:39:21;;;;;;;21.02;1.88;;;;;;;22.90;55.01;99174.16;7314481;19;129166;-42
2022/05/31 10:41:49;;;;;;;24.33;1.85;;;;;;;22.93;52.99;99173.00;7314186;19;131774;-42
2022/05/31 10:44:29;;;;;;;10.20;1.05;;;;;;;22.93;55.06;99168.59;7313343;19;129796;-40
2022/05/31 10:47:01;;;;;;;18.90;1.63;;;;;;;22.94;54.12;99166.81;7314402;19;129029;-42
2022/05/31 10:49:27;;;;;;;36.90;2.97;;;;;;;22.92;54.00;99179.25;7310862;19;128965;-43
2022/05/31 10:52:23;;;;;;;21.98;1.77;;;;;;;22.85;54.27;99152.00;7314643;19;129149;-42
2022/05/31 10:55:28;;;;;;;23.45;1.85;;;;;;;22.92;55.12;99174.00;7313248;19;130392;-42
2022/05/31 10:58:28;;;;;;;25.25;2.17;;;;;;;22.92;55.61;99153.03;7312804;19;129367;-43
2022/05/31 11:00:59;;;;;;;31.52;2.38;;;;;;;22.56;50.01;99157.59;7310953;19;129956;-43
2022/05/31 11:03:46;;;;;;;37.92;2.80;;;;;;;22.63;55.07;99155.19;7311039;19;129158;-39
2022/05/31 11:06:29;;;;;;;66.43;5.38;;;;;;;22.69;53.38;99141.47;7308197;19;130384;-42
2022/05/31 11:12:08;;;;;;;27.92;2.10;;;;;;;22.90;51.91;99144.50;7314747;19;128823;-42
2022/05/31 11:14:58;;;;;;;13.85;1.40;;;;;;;22.90;54.65;99150.56;7312491;19;129868;-42
2022/05/31 11:17:49;;;;;;;28.05;2.38;;;;;;;22.92;53.42;99142.53;7313880;19;131037;-42
2022/05/31 11:20:24;;;;;;;22.10;1.77;;;;;;;22.93;54.00;99137.13;7310006;19;129315;-39
2022/05/31 11:23:09;;;;;;;24.27;2.03;;;;;;;22.91;55.50;99133.00;7312363;19;129304;-41
2022/05/31 11:25:56;;;;;;;26.60;2.20;;;;;;;22.93;54.90;99138.94;7314304;19;130088;-41
2022/05/31 11:28:55;;;;;;;21.40;1.93;;;;;;;22.94;55.27;99140.59;7314602;19;130650;-43
2022/05/31 11:31:42;;;;;;;18.02;1.58;;;;;;;22.93;54.14;99144.16;7312625;19;129300;-41
2022/05/31 11:34:24;;;;;;;35.28;2.83;;;;;;;22.82;55.16;99132.19;7313235;19;129891;-41
2022/05/31 11:37:07;;;;;;;24.35;2.05;;;;;;;22.89;55.12;99132.38;7313302;19;130290;-39
2022/05/31 11:40:11;;;;;;;16.30;1.70;;;;;;;22.88;54.68;99130.72;7311966;19;129700;-42
2022/05/31 11:42:45;;;;;;;38.33;3.03;;;;;;;22.89;53.07;99127.13;7311758;19;129487;-42
2022/05/31 11:45:13;;;;;;;24.20;1.90;;;;;;;22.86;54.56;99122.19;7312781;19;129560;-42
2022/05/31 11:48:09;;;;;;;35.63;2.78;;;;;;;22.91;55.24;99127.78;7311572;19;130375;-43
2022/05/31 11:51:05;;;;;;;26.25;2.13;;;;;;;22.89;55.58;99121.91;7310271;19;131130;-42
2022/05/31 11:53:39;;;;;;;44.60;3.30;;;;;;;22.90;53.75;99115.66;7311982;19;129223;-42
2022/05/31 11:56:30;;;;;;;33.60;2.80;;;;;;;22.80;55.15;99107.09;7312315;19;129107;-42